Time;durP1;ratioP1;P1;durP2;ratioP2;P2;SDS_P1;SDS_P2;PMS_P1;PMS_P2;Temp;Humidity;BMP_temperature;BMP_pressure;BME280_temperature;BME280_humidity;BME280_pressure;Samples;Min_cycle;Max_cycle;Signal;HPM_P1;HPM_P2
2022/05/12 00:06:28;;;;;;;1.42;0.70;;;;;;;18.95;61.94;100813.84;20806038;28;20452;-65
2022/05/12 00:16:29;;;;;;;1.70;0.55;;;;;;;18.94;61.49;100836.44;20805431;28;20045;-65
2022/05/12 00:26:33;;;;;;;2.25;0.65;;;;;;;18.94;61.03;100844.53;20816224;28;20045;-65
2022/05/12 00:36:35;;;;;;;3.05;0.60;;;;;;;18.91;60.79;100867.22;20801000;28;20041;-65
2022/05/12 00:46:39;;;;;;;1.90;0.98;;;;;;;18.69;60.40;100858.47;20808676;28;20046;-66
2022/05/12 00:56:41;;;;;;;2.80;1.00;;;;;;;18.83;60.25;100894.06;20815211;28;20121;-66
2022/05/12 01:06:42;;;;;;;2.15;0.70;;;;;;;18.84;60.02;100906.56;20793632;28;20513;-65
2022/05/12 01:16:47;;;;;;;2.83;0.57;;;;;;;18.82;59.75;100936.38;20809299;28;20049;-65
2022/05/12 01:26:49;;;;;;;1.63;0.70;;;;;;;18.81;59.66;100950.00;20811719;28;20448;-65
2022/05/12 01:36:50;;;;;;;1.63;0.70;;;;;;;18.73;59.21;100952.56;20798962;28;20053;-65
2022/05/12 01:46:52;;;;;;;1.95;0.52;;;;;;;18.73;58.82;100966.88;20826488;28;20063;-65
2022/05/12 01:56:53;;;;;;;1.35;0.70;;;;;;;18.68;58.79;100980.81;20829738;28;20049;-65
2022/05/12 02:06:55;;;;;;;1.33;0.55;;;;;;;18.70;58.57;100995.00;20837043;28;20053;-65
2022/05/12 02:16:56;;;;;;;0.57;0.32;;;;;;;18.70;58.34;101000.38;20793705;28;20072;-65
2022/05/12 02:26:58;;;;;;;0.50;0.45;;;;;;;18.66;57.91;101017.84;20811718;28;20107;-65
2022/05/12 02:37:03;;;;;;;1.10;0.50;;;;;;;18.62;57.55;101038.00;20811054;28;20134;-65
2022/05/12 02:47:07;;;;;;;1.35;0.60;;;;;;;18.55;57.42;101048.47;20833655;28;20141;-65
2022/05/12 02:57:09;;;;;;;1.42;0.50;;;;;;;18.48;57.51;101051.81;20828944;28;20045;-65
2022/05/12 03:07:10;;;;;;;1.02;0.40;;;;;;;18.53;57.45;101079.22;20823959;28;20084;-65
2022/05/12 03:17:12;;;;;;;0.70;0.30;;;;;;;18.55;57.17;101093.41;20795422;28;20043;-65
2022/05/12 03:27:14;;;;;;;0.70;0.30;;;;;;;18.52;57.18;101089.16;20820437;28;20547;-65
2022/05/12 03:37:16;;;;;;;1.33;0.70;;;;;;;18.47;56.80;101106.72;20842000;28;20099;-65
2022/05/12 03:47:38;;;;;;;1.75;0.38;;;;;;;18.41;56.87;101108.16;20828574;28;20127;-66
2022/05/12 03:57:40;;;;;;;1.08;0.60;;;;;;;18.30;56.30;101108.22;20827503;28;20053;-66
2022/05/12 04:07:43;;;;;;;1.58;0.50;;;;;;;18.37;56.48;101134.50;20821799;28;20053;-66
2022/05/12 04:17:54;;;;;;;0.95;0.60;;;;;;;18.39;56.44;101150.56;20816352;28;20528;-64
2022/05/12 04:27:56;;;;;;;1.70;0.70;;;;;;;18.43;57.09;101164.59;20771813;28;20104;-64
2022/05/12 04:37:58;;;;;;;1.20;0.73;;;;;;;18.41;57.23;101165.59;20792546;28;20588;-65
2022/05/12 04:48:00;;;;;;;1.33;0.50;;;;;;;18.44;57.52;101187.88;20808728;28;20045;-65
2022/05/12 04:58:02;;;;;;;0.90;0.60;;;;;;;18.46;57.95;101192.16;20813651;28;20512;-65
2022/05/12 05:08:04;;;;;;;1.27;0.57;;;;;;;18.49;57.84;101204.50;20839158;28;20481;-65
2022/05/12 05:18:10;;;;;;;2.20;0.70;;;;;;;18.51;58.70;101229.47;20767596;28;20049;-64
2022/05/12 05:28:13;;;;;;;2.38;0.60;;;;;;;18.51;60.89;101238.44;20768991;28;20049;-62
2022/05/12 05:38:15;;;;;;;7.25;1.20;;;;;;;18.58;61.07;101254.09;20772828;28;20084;-64
2022/05/12 05:48:16;;;;;;;3.50;1.02;;;;;;;18.58;61.07;101279.22;20795285;28;20108;-63
2022/05/12 05:58:19;;;;;;;3.30;1.10;;;;;;;18.48;60.58;101276.47;20801369;28;20127;-63
2022/05/12 06:08:21;;;;;;;4.05;1.10;;;;;;;18.65;60.97;101312.75;20755555;28;20053;-63
2022/05/12 06:18:30;;;;;;;3.15;1.15;;;;;;;18.66;61.30;101327.97;20785032;28;20088;-63
2022/05/12 06:28:32;;;;;;;3.70;1.40;;;;;;;18.52;61.62;101321.03;20754613;28;20397;-63
2022/05/12 06:38:34;;;;;;;4.95;1.20;;;;;;;18.64;61.96;101348.81;20761625;28;20111;-63
2022/05/12 06:48:37;;;;;;;4.50;1.10;;;;;;;18.74;61.83;101375.00;20774492;28;20055;-63
2022/05/12 06:58:39;;;;;;;3.33;1.23;;;;;;;18.77;61.79;101372.03;20767123;28;20107;-63
2022/05/12 07:08:41;;;;;;;2.10;0.90;;;;;;;18.77;61.58;101374.72;20772774;28;20049;-63
2022/05/12 07:18:43;;;;;;;2.83;0.90;;;;;;;18.81;61.43;101384.25;20778080;28;20526;-63
2022/05/12 07:28:45;;;;;;;3.45;1.15;;;;;;;18.92;61.11;101392.28;20785161;28;20064;-66
2022/05/12 07:38:47;;;;;;;2.22;0.80;;;;;;;19.41;60.22;101405.25;20813312;28;20047;-63
2022/05/12 07:48:49;;;;;;;2.95;1.13;;;;;;;19.56;58.47;101347.22;20808482;28;20080;-63
2022/05/12 07:58:52;;;;;;;4.28;1.42;;;;;;;20.78;55.46;101412.03;20813406;28;20137;-64
2022/05/12 08:08:54;;;;;;;3.92;0.98;;;;;;;23.18;51.60;101421.22;20773433;28;20041;-65
2022/05/12 08:18:55;;;;;;;4.85;1.20;;;;;;;25.17;46.90;101434.66;20734190;28;20061;-65
2022/05/12 08:28:57;;;;;;;3.10;1.00;;;;;;;24.61;46.52;101446.19;20735240;28;20156;-64
2022/05/12 08:38:58;;;;;;;3.25;1.20;;;;;;;22.70;49.20;101456.00;20745498;28;20085;-63
2022/05/12 08:49:27;;;;;;;2.70;0.70;;;;;;;21.59;52.02;101449.53;20742506;28;20095;-63
2022/05/12 08:59:29;;;;;;;3.35;1.08;;;;;;;21.10;53.04;101456.91;20745289;28;20041;-64
2022/05/12 09:10:03;;;;;;;3.95;0.75;;;;;;;20.86;52.86;101459.06;20736758;28;20049;-64
2022/05/12 09:20:09;;;;;;;2.50;1.00;;;;;;;20.74;52.58;101465.56;20732418;28;20042;-63
2022/05/12 09:30:11;;;;;;;3.53;0.98;;;;;;;20.60;53.42;101480.38;20734179;28;20053;-63
2022/05/12 09:40:37;;;;;;;3.03;1.00;;;;;;;20.43;52.36;101482.78;20721277;28;20052;-63
2022/05/12 09:50:38;;;;;;;;;;;;;;;20.41;52.14;101475.78;20740889;28;20140;-63
2022/05/12 10:00:41;;;;;;;3.58;1.10;;;;;;;20.40;53.00;101469.53;20743106;28;21030;-63
2022/05/12 10:10:42;;;;;;;2.72;0.93;;;;;;;20.41;53.19;101478.47;20739927;28;20092;-62
2022/05/12 10:20:47;;;;;;;2.25;0.73;;;;;;;20.42;53.85;101491.88;20767846;28;20056;-63
2022/05/12 10:30:51;;;;;;;1.88;0.75;;;;;;;20.46;53.17;101476.22;20753492;28;20145;-63
2022/05/12 10:40:57;;;;;;;2.03;0.80;;;;;;;20.38;52.69;101455.28;20766645;28;20188;-63
2022/05/12 10:51:02;;;;;;;1.77;0.80;;;;;;;20.58;52.87;101488.63;20773578;28;20100;-63
2022/05/12 11:01:27;;;;;;;3.90;1.05;;;;;;;20.62;52.44;101494.59;20782514;28;20132;-61
2022/05/12 11:11:37;;;;;;;2.13;0.67;;;;;;;20.60;51.73;101484.94;20750472;28;20080;-62
2022/05/12 11:21:52;;;;;;;1.58;0.80;;;;;;;20.71;51.44;101493.75;20738037;28;20828;-61
2022/05/12 11:32:04;;;;;;;4.45;0.80;;;;;;;20.70;50.98;101488.50;20710005;28;20270;-62
2022/05/12 11:53:18;;;;;;;3.22;0.80;;;;;;;20.62;49.92;101474.84;20704749;28;20091;-63
2022/05/12 12:03:21;;;;;;;2.50;0.75;;;;;;;20.60;50.11;101479.53;20773226;28;20065;-64
2022/05/12 12:13:35;;;;;;;4.07;1.05;;;;;;;20.59;50.16;101481.38;20792572;28;20136;-64
2022/05/12 12:23:37;;;;;;;1.73;0.80;;;;;;;20.57;50.23;101484.22;20783097;28;20533;-64
2022/05/12 12:33:42;;;;;;;1.45;0.50;;;;;;;20.56;49.45;101471.69;20838483;28;20116;-64
2022/05/12 12:43:48;;;;;;;1.48;0.60;;;;;;;20.54;49.29;101467.41;20862339;28;20132;-64
2022/05/12 13:04:13;;;;;;;1.75;0.77;;;;;;;20.46;48.73;101472.66;20879023;28;20045;-64
2022/05/12 13:14:16;;;;;;;2.38;0.45;;;;;;;20.45;48.66;101465.56;20861714;28;20047;-64
2022/05/12 13:24:28;;;;;;;1.17;0.40;;;;;;;20.29;48.25;101442.59;20872270;28;20072;-64
2022/05/12 13:34:31;;;;;;;0.70;0.50;;;;;;;20.40;47.98;101457.84;20852057;28;20132;-64
2022/05/12 13:44:36;;;;;;;0.88;0.47;;;;;;;20.35;47.85;101446.59;20888201;28;20051;-64
2022/05/12 13:54:39;;;;;;;;;;;;;;;20.32;47.16;101441.47;20893052;28;20044;-64
2022/05/12 14:04:41;;;;;;;1.70;0.50;;;;;;;20.26;46.85;101448.28;20892077;28;19944;-64
2022/05/12 14:25:03;;;;;;;3.97;0.60;;;;;;;20.20;48.54;101447.00;20783357;28;20073;-61
2022/05/12 14:35:09;;;;;;;4.15;0.68;;;;;;;20.17;49.84;101408.56;20773224;28;20045;-66
2022/05/12 14:45:11;;;;;;;4.95;1.20;;;;;;;20.50;50.41;101428.13;20789433;28;20172;-62
2022/05/12 14:55:13;;;;;;;3.97;1.25;;;;;;;20.69;50.41;101420.00;20789424;28;20060;-62
2022/05/12 15:05:15;;;;;;;6.05;1.70;;;;;;;20.84;51.22;101398.81;20804592;28;20497;-68
2022/05/12 15:15:17;;;;;;;6.60;1.10;;;;;;;20.90;52.15;101400.09;20771562;28;20401;-60
2022/05/12 15:25:19;;;;;;;10.13;1.40;;;;;;;20.78;51.34;101401.22;20767443;28;20082;-62
2022/05/12 15:35:22;;;;;;;7.85;1.30;;;;;;;20.64;51.46;101392.53;20757257;28;20517;-65
2022/05/12 15:45:24;;;;;;;6.07;1.00;;;;;;;20.59;50.44;101381.28;20745867;28;20056;-64
2022/05/12 15:55:25;;;;;;;2.47;1.17;;;;;;;20.58;53.06;101391.25;20757502;28;20140;-64
2022/05/12 16:05:27;;;;;;;3.33;0.95;;;;;;;20.52;51.06;101390.97;20767717;28;20579;-61
2022/05/12 16:15:31;;;;;;;4.60;0.70;;;;;;;20.52;51.54;101380.97;20766380;28;20522;-62
2022/05/12 16:25:43;;;;;;;4.05;0.70;;;;;;;20.54;49.94;101403.34;20755868;28;20056;-65
2022/05/12 16:35:46;;;;;;;4.80;1.05;;;;;;;20.50;53.31;101382.97;20739674;28;20038;-68
2022/05/12 16:45:47;;;;;;;7.13;1.13;;;;;;;20.43;51.59;101374.59;20705580;28;20049;-63
2022/05/12 16:55:51;;;;;;;5.00;0.82;;;;;;;20.43;50.40;101381.84;20733496;28;20528;-60
2022/05/12 17:05:52;;;;;;;5.03;1.10;;;;;;;20.37;50.35;101391.38;20766373;28;20336;-63
2022/05/12 17:15:59;;;;;;;1.63;0.80;;;;;;;20.24;50.40;101382.66;20753983;28;20046;-62
2022/05/12 17:26:00;;;;;;;2.97;0.85;;;;;;;20.16;50.78;101396.03;20745061;28;20087;-57
2022/05/12 17:36:03;;;;;;;1.20;0.68;;;;;;;20.14;50.68;101409.72;20770814;28;20053;-57
2022/05/12 17:46:05;;;;;;;2.30;0.70;;;;;;;20.09;51.20;101406.53;20765777;28;20049;-58
2022/05/12 17:56:07;;;;;;;2.60;0.60;;;;;;;19.89;51.20;101374.03;20803545;28;20520;-57
2022/05/12 18:06:08;;;;;;;1.58;0.65;;;;;;;20.07;50.26;101398.59;20831374;28;20505;-58
2022/05/12 18:16:10;;;;;;;0.60;0.47;;;;;;;20.06;50.43;101396.88;20791129;28;20061;-58
2022/05/12 18:26:11;;;;;;;4.25;0.90;;;;;;;20.03;51.09;101399.00;20812562;28;20052;-57
2022/05/12 18:36:13;;;;;;;2.22;0.80;;;;;;;19.99;51.32;101390.31;20823057;28;20600;-58
2022/05/12 18:46:14;;;;;;;1.92;0.80;;;;;;;19.96;52.81;101398.72;20808768;28;20120;-58
2022/05/12 18:56:16;;;;;;;2.50;0.73;;;;;;;19.91;53.02;101398.28;20811204;28;20901;-59
2022/05/12 19:06:18;;;;;;;2.88;0.60;;;;;;;19.85;51.17;101403.16;20799875;28;20080;-61
